createdAt,value
2019-06-27T00:00:45.880Z,7.83
2019-06-27T00:03:14.554Z,7.67
2019-06-27T00:05:43.171Z,8.50
2019-06-27T00:08:11.936Z,10.03
2019-06-27T00:10:40.523Z,8.23
2019-06-27T00:13:09.219Z,8.73
2019-06-27T00:15:50.311Z,8.20
2019-06-27T00:18:18.983Z,6.83
2019-06-27T00:20:47.444Z,11.43
2019-06-27T00:23:16.209Z,6.93
2019-06-27T00:25:44.742Z,8.37
2019-06-27T00:28:13.264Z,8.53
2019-06-27T00:30:42.203Z,8.43
2019-06-27T00:33:10.761Z,8.70
2019-06-27T00:35:39.347Z,8.23
2019-06-27T00:38:08.021Z,8.40
2019-06-27T00:40:36.700Z,8.23
2019-06-27T00:43:05.180Z,10.87
2019-06-27T00:45:34.051Z,7.33
2019-06-27T00:48:02.608Z,8.93
2019-06-27T00:50:31.179Z,8.67
2019-06-27T00:52:59.735Z,5.97
2019-06-27T00:55:28.317Z,8.23
2019-06-27T00:57:56.920Z,9.27
2019-06-27T01:00:25.838Z,7.93
2019-06-27T01:02:54.375Z,8.87
2019-06-27T01:05:22.926Z,8.67
2019-06-27T01:07:51.562Z,7.17
2019-06-27T01:10:20.744Z,10.97
2019-06-27T01:12:49.411Z,6.70
2019-06-27T01:15:18.427Z,8.50
2019-06-27T01:17:47.046Z,7.70
2019-06-27T01:20:15.975Z,7.67
2019-06-27T01:22:44.726Z,9.20
2019-06-27T01:25:13.186Z,8.23
2019-06-27T01:27:41.840Z,8.43
2019-06-27T01:30:11.554Z,11.03
2019-06-27T01:32:40.139Z,9.77
2019-06-27T01:35:09.385Z,6.60
2019-06-27T01:37:37.885Z,8.00
2019-06-27T01:40:08.096Z,7.23
2019-06-27T01:42:36.877Z,10.73
2019-06-27T01:45:08.772Z,7.97
2019-06-27T01:47:37.324Z,8.50
2019-06-27T01:50:06.804Z,8.90
2019-06-27T01:52:35.329Z,9.13
2019-06-27T01:55:08.256Z,7.90
2019-06-27T01:57:46.038Z,7.73
2019-06-27T02:00:08.492Z,6.60
2019-06-27T02:02:37.033Z,8.87
2019-06-27T02:05:07.010Z,10.13
2019-06-27T02:07:35.584Z,7.60
2019-06-27T02:10:06.597Z,9.00
2019-06-27T02:12:35.207Z,8.77
2019-06-27T02:15:08.240Z,6.77
2019-06-27T02:17:36.939Z,10.43
2019-06-27T02:20:07.328Z,11.10
2019-06-27T02:22:37.760Z,11.83
2019-06-27T02:25:07.185Z,6.50
2019-06-27T02:27:35.903Z,8.43
2019-06-27T02:30:05.861Z,8.40
2019-06-27T02:32:34.418Z,9.40
2019-06-27T02:35:03.644Z,9.60
2019-06-27T02:37:32.122Z,9.97
2019-06-27T02:40:01.897Z,9.87
2019-06-27T02:42:30.441Z,10.87
2019-06-27T02:44:59.012Z,10.63
2019-06-27T02:47:27.843Z,9.50
2019-06-27T02:49:56.394Z,9.93
2019-06-27T02:52:24.953Z,8.20
2019-06-27T02:54:53.481Z,11.47
2019-06-27T02:57:22.178Z,10.23
2019-06-27T02:59:50.715Z,10.23
2019-06-27T03:02:20.661Z,9.93
2019-06-27T03:04:49.234Z,12.63
2019-06-27T03:07:17.827Z,11.87
2019-06-27T03:09:46.423Z,9.17
2019-06-27T03:12:15.118Z,8.03
2019-06-27T03:14:43.732Z,11.63
2019-06-27T03:17:13.216Z,12.07
2019-06-27T03:19:41.909Z,14.03
2019-06-27T03:22:10.659Z,12.30
2019-06-27T03:24:39.287Z,10.50
2019-06-27T03:27:07.925Z,12.37
2019-06-27T03:29:36.471Z,9.30
2019-06-27T03:32:04.996Z,10.07
2019-06-27T03:34:33.568Z,12.73
2019-06-27T03:37:02.675Z,12.57
2019-06-27T03:39:31.275Z,14.90
2019-06-27T03:41:59.860Z,14.80
2019-06-27T03:44:29.713Z,11.70
2019-06-27T03:46:58.272Z,12.07
2019-06-27T03:49:26.757Z,11.07
2019-06-27T03:51:55.309Z,10.50
2019-06-27T03:54:24.028Z,12.50
2019-06-27T03:56:52.573Z,12.93
2019-06-27T03:59:21.043Z,14.17
2019-06-27T04:01:49.659Z,11.57
2019-06-27T04:04:18.201Z,12.37
2019-06-27T04:06:46.837Z,13.20
2019-06-27T04:09:15.444Z,18.07
2019-06-27T04:11:44.172Z,13.00
2019-06-27T04:14:12.664Z,11.53
2019-06-27T04:16:41.544Z,16.90
2019-06-27T04:19:10.200Z,12.93
2019-06-27T04:21:38.802Z,12.57
2019-06-27T04:24:07.491Z,14.70
2019-06-27T04:26:36.120Z,13.63
2019-06-27T04:29:04.675Z,15.70
2019-06-27T04:31:33.524Z,14.93
2019-06-27T04:34:02.099Z,15.30
2019-06-27T04:36:30.744Z,14.97
2019-06-27T04:38:59.804Z,13.50
2019-06-27T04:41:29.345Z,13.63
2019-06-27T04:43:57.882Z,14.07
2019-06-27T04:46:26.469Z,14.20
2019-06-27T04:48:55.092Z,14.67
2019-06-27T04:51:23.747Z,14.77
2019-06-27T04:53:52.578Z,16.17
2019-06-27T04:56:21.160Z,16.70
2019-06-27T04:58:49.796Z,18.07
2019-06-27T05:01:18.413Z,19.27
2019-06-27T05:03:47.381Z,21.50
2019-06-27T05:06:16.072Z,18.63
2019-06-27T05:08:45.202Z,18.67
2019-06-27T05:11:13.732Z,18.60
2019-06-27T05:13:42.461Z,15.43
2019-06-27T05:16:11.046Z,17.80
2019-06-27T05:18:39.911Z,18.70
2019-06-27T05:21:08.401Z,23.27
2019-06-27T05:23:38.544Z,16.63
2019-06-27T05:26:07.178Z,20.77
2019-06-27T05:28:35.827Z,17.90
2019-06-27T05:31:04.379Z,20.57
2019-06-27T05:33:34.099Z,21.07
2019-06-27T05:36:03.169Z,26.50
2019-06-27T05:38:32.070Z,25.50
2019-06-27T05:41:00.912Z,24.03
2019-06-27T05:43:30.743Z,28.73
2019-06-27T05:45:59.618Z,27.93
2019-06-27T05:48:28.096Z,29.03
2019-06-27T05:50:56.726Z,26.93
2019-06-27T05:53:25.452Z,24.60
2019-06-27T05:55:54.079Z,25.13
2019-06-27T05:58:22.879Z,25.23
2019-06-27T06:00:51.731Z,23.87
2019-06-27T06:03:23.764Z,24.70
2019-06-27T06:05:52.442Z,21.57
2019-06-27T06:08:20.993Z,18.50
2019-06-27T06:10:49.704Z,25.60
2019-06-27T06:13:19.676Z,24.43
2019-06-27T06:15:48.296Z,27.87
2019-06-27T06:18:16.858Z,18.03
2019-06-27T06:20:45.415Z,23.30
2019-06-27T06:23:13.983Z,27.47
2019-06-27T06:25:42.610Z,23.93
2019-06-27T06:28:11.430Z,20.00
2019-06-27T06:30:44.990Z,19.40
2019-06-27T06:33:10.318Z,25.23
2019-06-27T06:35:38.862Z,26.23
2019-06-27T06:38:08.928Z,25.53
2019-06-27T06:40:37.588Z,22.27
2019-06-27T06:43:06.543Z,24.43
2019-06-27T06:45:35.114Z,22.57
2019-06-27T06:48:03.669Z,23.90
2019-06-27T06:50:33.479Z,23.87
2019-06-27T06:53:02.018Z,21.80
2019-06-27T06:55:31.058Z,22.27
2019-06-27T06:58:00.057Z,22.37
2019-06-27T07:00:28.838Z,20.63
2019-06-27T07:02:57.491Z,22.43
2019-06-27T07:05:27.045Z,16.93
2019-06-27T07:07:55.846Z,16.20
2019-06-27T07:10:24.625Z,21.47
2019-06-27T07:12:54.006Z,23.23
2019-06-27T07:15:22.619Z,19.60
2019-06-27T07:17:51.078Z,18.77
2019-06-27T07:20:20.049Z,18.73
2019-06-27T07:22:48.707Z,18.40
2019-06-27T07:25:17.726Z,17.70
2019-06-27T07:27:46.418Z,16.93
2019-06-27T07:30:15.486Z,15.33
2019-06-27T07:32:44.008Z,14.63
2019-06-27T07:35:12.710Z,15.80
2019-06-27T07:37:41.487Z,18.07
2019-06-27T07:40:10.674Z,14.27
2019-06-27T07:42:41.711Z,15.90
2019-06-27T07:45:10.409Z,16.03
2019-06-27T07:47:47.690Z,14.40
2019-06-27T07:50:17.017Z,15.10
2019-06-27T07:52:45.653Z,16.50
2019-06-27T07:55:18.483Z,14.50
2019-06-27T07:57:47.374Z,14.73
2019-06-27T08:00:16.544Z,14.30
2019-06-27T08:02:55.076Z,15.17
2019-06-27T08:05:26.211Z,11.53
2019-06-27T08:07:56.191Z,14.30
2019-06-27T08:10:27.638Z,15.23
2019-06-27T08:12:56.733Z,16.03
2019-06-27T08:15:27.815Z,11.77
2019-06-27T08:17:57.143Z,14.10
2019-06-27T08:20:27.745Z,16.17
2019-06-27T08:22:56.563Z,12.07
2019-06-27T08:25:28.709Z,14.63
2019-06-27T08:28:00.589Z,11.93
2019-06-27T08:30:29.207Z,14.03
2019-06-27T08:33:15.003Z,14.37
2019-06-27T08:35:44.856Z,12.70
2019-06-27T08:38:14.063Z,13.97
2019-06-27T08:40:43.625Z,11.33
2019-06-27T08:43:12.531Z,12.63
2019-06-27T08:45:43.443Z,17.20
2019-06-27T08:48:18.992Z,9.73
2019-06-27T08:50:47.965Z,11.90
2019-06-27T08:53:17.098Z,15.13
2019-06-27T08:55:46.421Z,11.53
2019-06-27T08:58:15.153Z,7.47
2019-06-27T09:00:46.014Z,10.33
2019-06-27T09:03:21.536Z,12.53
2019-06-27T09:05:50.248Z,9.67
2019-06-27T09:08:18.956Z,11.03
2019-06-27T09:10:48.846Z,11.83
2019-06-27T09:13:17.450Z,11.20
2019-06-27T09:15:46.106Z,10.50
2019-06-27T09:18:14.653Z,11.33
2019-06-27T09:20:44.251Z,13.47
2019-06-27T09:23:13.131Z,10.63
2019-06-27T09:25:42.167Z,10.30
2019-06-27T09:28:10.927Z,7.33
2019-06-27T09:30:40.404Z,13.10
2019-06-27T09:33:09.114Z,8.53
2019-06-27T09:35:37.702Z,12.27
2019-06-27T09:38:06.272Z,7.37
2019-06-27T09:40:34.963Z,8.50
2019-06-27T09:43:03.975Z,10.23
2019-06-27T09:45:32.719Z,9.03
2019-06-27T09:48:01.479Z,8.17
2019-06-27T09:50:30.802Z,7.17
2019-06-27T09:52:59.560Z,7.67
2019-06-27T09:55:28.167Z,8.40
2019-06-27T09:57:56.987Z,8.77
2019-06-27T10:00:26.859Z,7.50
2019-06-27T10:02:55.505Z,9.83
2019-06-27T10:05:24.157Z,8.03
2019-06-27T10:07:55.547Z,7.07
2019-06-27T10:10:24.540Z,6.97
2019-06-27T10:12:53.326Z,8.43
2019-06-27T10:15:22.035Z,6.47
2019-06-27T10:17:50.702Z,8.83
2019-06-27T10:20:19.410Z,7.37
2019-06-27T10:22:48.154Z,10.63
2019-06-27T10:25:18.225Z,5.67
2019-06-27T10:27:46.910Z,10.50
2019-06-27T10:30:16.263Z,8.63
2019-06-27T10:32:58.306Z,7.57
2019-06-27T10:35:16.250Z,9.75
2019-06-27T10:37:44.854Z,8.23
2019-06-27T10:40:13.923Z,7.67
2019-06-27T10:42:42.609Z,7.77
2019-06-27T10:45:11.462Z,5.13
2019-06-27T10:47:45.967Z,7.50
2019-06-27T10:50:14.939Z,8.27
2019-06-27T10:52:43.623Z,6.53
2019-06-27T10:55:12.237Z,9.63
2019-06-27T10:57:41.000Z,5.83
2019-06-27T11:00:10.068Z,7.43
2019-06-27T11:02:39.065Z,7.33
2019-06-27T11:05:08.361Z,10.73
2019-06-27T11:07:40.579Z,10.77
2019-06-27T11:10:09.015Z,7.20
2019-06-27T11:12:37.807Z,11.10
2019-06-27T11:15:08.184Z,7.73
2019-06-27T11:17:37.171Z,7.07
2019-06-27T11:20:06.845Z,7.70
2019-06-27T11:22:35.867Z,8.83
2019-06-27T11:30:23.274Z,5.50
2019-06-27T11:32:52.106Z,9.53
2019-06-27T11:35:21.015Z,6.70
2019-06-27T11:37:49.617Z,8.53
2019-06-27T11:40:19.946Z,6.07
2019-06-27T11:42:48.711Z,9.10
2019-06-27T11:45:17.814Z,8.20
2019-06-27T11:47:46.526Z,7.47
2019-06-27T11:50:15.567Z,6.00
2019-06-27T11:52:47.073Z,6.43
2019-06-27T11:55:16.275Z,4.53
2019-06-27T11:57:46.234Z,5.80
2019-06-27T12:00:15.519Z,7.97
2019-06-27T12:02:44.124Z,7.13
2019-06-27T12:05:15.283Z,4.30
2019-06-27T12:07:44.019Z,8.73
2019-06-27T12:10:14.524Z,5.70
2019-06-27T12:12:43.221Z,4.27
2019-06-27T12:15:12.941Z,5.37
2019-06-27T12:17:41.845Z,6.47
2019-06-27T12:20:11.086Z,3.90
2019-06-27T12:22:39.833Z,8.37
2019-06-27T12:25:08.790Z,5.07
2019-06-27T12:27:38.165Z,7.20
2019-06-27T12:30:07.690Z,4.63
2019-06-27T12:32:50.511Z,5.63
2019-06-27T12:35:09.803Z,4.40
2019-06-27T12:37:39.980Z,4.20
2019-06-27T12:40:11.605Z,7.33
2019-06-27T12:42:41.639Z,4.87
2019-06-27T12:45:12.981Z,3.10
2019-06-27T12:47:41.612Z,2.80
2019-06-27T12:50:12.760Z,3.60
2019-06-27T12:52:43.880Z,4.30
2019-06-27T12:55:12.627Z,6.77
2019-06-27T12:57:41.334Z,2.47
2019-06-27T13:00:11.418Z,3.63
2019-06-27T13:02:40.380Z,4.17
2019-06-27T13:05:10.465Z,7.70
2019-06-27T13:07:39.130Z,4.97
2019-06-27T13:10:08.308Z,3.33
2019-06-27T13:12:39.524Z,4.43
2019-06-27T13:15:11.500Z,6.13
2019-06-27T13:17:40.516Z,4.17
2019-06-27T13:20:11.978Z,4.77
2019-06-27T13:22:40.626Z,6.47
2019-06-27T13:25:12.810Z,2.60
2019-06-27T13:27:43.983Z,5.43
2019-06-27T13:30:13.522Z,3.27
2019-06-27T13:32:42.565Z,2.80
2019-06-27T13:35:12.715Z,3.77
2019-06-27T13:37:42.970Z,4.00
2019-06-27T13:40:14.957Z,2.80
2019-06-27T13:42:45.681Z,3.27
2019-06-27T13:45:20.328Z,3.40
2019-06-27T13:47:50.330Z,2.27
2019-06-27T13:50:20.570Z,3.50
2019-06-27T13:52:49.159Z,3.87
2019-06-27T13:55:17.967Z,8.03
2019-06-27T13:57:48.388Z,4.97
2019-06-27T14:00:18.842Z,3.60
2019-06-27T14:02:47.611Z,5.47
2019-06-27T14:05:18.147Z,5.30
2019-06-27T14:07:47.377Z,8.07
2019-06-27T14:10:18.153Z,6.33
2019-06-27T14:12:46.921Z,4.80
2019-06-27T14:15:15.743Z,7.40
2019-06-27T14:17:44.544Z,4.97
2019-06-27T14:20:13.612Z,2.47
2019-06-27T14:22:44.744Z,5.60
2019-06-27T14:25:18.950Z,3.90
2019-06-27T14:27:48.844Z,6.70
2019-06-27T14:30:20.845Z,6.17
2019-06-27T14:32:53.533Z,6.77
2019-06-27T14:35:23.748Z,6.03
2019-06-27T14:37:54.054Z,6.43
2019-06-27T14:40:23.088Z,6.13
2019-06-27T14:42:55.825Z,6.87
2019-06-27T14:45:26.203Z,6.33
2019-06-27T14:47:56.296Z,4.90
2019-06-27T14:50:24.913Z,5.07
2019-06-27T14:52:54.672Z,4.77
2019-06-27T14:55:23.584Z,9.87
2019-06-27T14:57:52.388Z,5.07
2019-06-27T15:00:41.366Z,4.87
2019-06-27T15:03:10.063Z,4.10
2019-06-27T15:05:40.289Z,8.77
2019-06-27T15:08:11.514Z,6.93
2019-06-27T15:10:40.250Z,3.83
2019-06-27T15:13:10.405Z,9.43
2019-06-27T15:15:39.097Z,3.53
2019-06-27T15:18:07.677Z,4.67
2019-06-27T15:20:36.787Z,8.07
2019-06-27T15:23:07.215Z,5.07
2019-06-27T15:25:40.670Z,4.87
2019-06-27T15:28:09.651Z,6.30
2019-06-27T15:30:38.315Z,4.50
2019-06-27T15:33:09.550Z,5.63
2019-06-27T15:35:52.019Z,5.37
2019-06-27T15:38:14.100Z,9.93
2019-06-27T15:40:43.566Z,5.63
2019-06-27T15:43:16.083Z,5.10
2019-06-27T15:45:46.416Z,3.90
2019-06-27T15:48:15.162Z,7.47
2019-06-27T15:50:45.084Z,8.40
2019-06-27T15:53:13.738Z,5.60
2019-06-27T15:55:46.298Z,4.90
2019-06-27T15:58:17.016Z,4.97
2019-06-27T16:00:45.682Z,5.37
2019-06-27T16:03:16.042Z,6.03
2019-06-27T16:05:45.030Z,8.47
2019-06-27T16:08:15.156Z,8.90
2019-06-27T16:10:43.843Z,5.90
2019-06-27T16:13:14.198Z,8.43
2019-06-27T16:15:47.516Z,5.43
2019-06-27T16:18:16.109Z,7.00
2019-06-27T16:20:51.172Z,11.80
2019-06-27T16:23:23.084Z,8.03
2019-06-27T16:25:52.096Z,5.97
2019-06-27T16:28:20.689Z,4.60
2019-06-27T16:30:49.413Z,6.93
2019-06-27T16:33:19.285Z,7.27
2019-06-27T16:35:47.957Z,7.37
2019-06-27T16:38:16.559Z,4.30
2019-06-27T16:40:45.427Z,4.37
2019-06-27T16:43:14.044Z,6.30
2019-06-27T16:45:42.744Z,5.60
2019-06-27T16:48:11.714Z,9.23
2019-06-27T16:50:40.320Z,6.77
2019-06-27T16:53:09.137Z,4.60
2019-06-27T16:55:37.817Z,3.47
2019-06-27T16:58:06.592Z,10.37
2019-06-27T17:00:35.219Z,12.37
2019-06-27T17:03:05.423Z,5.17
2019-06-27T17:05:34.074Z,5.07
2019-06-27T17:08:02.977Z,5.73
2019-06-27T17:10:31.607Z,4.37
2019-06-27T17:13:00.193Z,5.13
2019-06-27T17:15:28.773Z,3.47
2019-06-27T17:17:57.399Z,6.53
2019-06-27T17:20:25.990Z,7.23
2019-06-27T17:22:56.528Z,5.83
2019-06-27T17:25:25.850Z,6.53
2019-06-27T17:27:54.559Z,5.33
2019-06-27T17:30:23.259Z,6.47
2019-06-27T17:32:52.109Z,4.27
2019-06-27T17:35:20.856Z,7.43
2019-06-27T17:37:49.519Z,6.60
2019-06-27T17:40:18.255Z,6.07
2019-06-27T17:42:47.064Z,4.30
2019-06-27T17:45:15.970Z,4.83
2019-06-27T17:47:44.542Z,7.87
2019-06-27T17:50:13.244Z,5.97
2019-06-27T17:52:42.279Z,6.73
2019-06-27T17:55:11.334Z,6.07
2019-06-27T17:57:39.958Z,6.10
2019-06-27T18:00:09.994Z,6.03
2019-06-27T18:02:38.716Z,5.93
2019-06-27T18:05:07.523Z,4.73
2019-06-27T18:07:36.455Z,6.23
2019-06-27T18:10:05.865Z,9.97
2019-06-27T18:12:34.510Z,4.30
2019-06-27T18:15:05.051Z,5.07
2019-06-27T18:17:34.307Z,5.67
2019-06-27T18:20:03.134Z,8.93
2019-06-27T18:22:34.449Z,5.00
2019-06-27T18:25:03.320Z,5.17
2019-06-27T18:27:31.965Z,13.20
2019-06-27T18:30:00.687Z,7.13
2019-06-27T18:32:29.343Z,7.50
2019-06-27T18:34:58.286Z,7.93
2019-06-27T18:37:29.891Z,6.03
2019-06-27T18:39:57.256Z,10.73
2019-06-27T18:42:25.837Z,10.47
2019-06-27T18:44:54.469Z,7.30
2019-06-27T18:47:23.670Z,6.37
2019-06-27T18:49:52.292Z,6.20
2019-06-27T18:52:20.941Z,9.17
2019-06-27T18:54:49.868Z,7.67
2019-06-27T18:57:18.705Z,8.20
2019-06-27T18:59:47.455Z,9.97
2019-06-27T19:02:16.260Z,6.07
2019-06-27T19:04:44.919Z,7.43
2019-06-27T19:07:13.571Z,6.77
2019-06-27T19:09:42.713Z,7.33
2019-06-27T19:12:11.357Z,7.93
2019-06-27T19:14:39.979Z,6.60
2019-06-27T19:17:08.585Z,6.67
2019-06-27T19:19:47.839Z,9.00
2019-06-27T19:22:18.069Z,6.63
2019-06-27T19:24:48.282Z,6.00
2019-06-27T19:27:16.853Z,7.77
2019-06-27T19:29:45.799Z,5.63
2019-06-27T19:32:14.397Z,5.60
2019-06-27T19:34:43.235Z,5.03
2019-06-27T19:37:12.006Z,6.90
2019-06-27T19:39:40.750Z,7.57
2019-06-27T19:42:09.661Z,6.63
2019-06-27T19:44:38.295Z,6.87
2019-06-27T19:47:06.977Z,7.10
2019-06-27T19:49:35.637Z,7.17
2019-06-27T19:52:04.516Z,7.87
2019-06-27T19:54:33.146Z,4.53
2019-06-27T19:57:01.945Z,8.43
2019-06-27T19:59:30.678Z,7.53
2019-06-27T20:01:59.341Z,5.40
2019-06-27T20:04:28.070Z,5.80
2019-06-27T20:06:56.754Z,7.40
2019-06-27T20:09:25.428Z,6.17
2019-06-27T20:11:54.036Z,5.73
2019-06-27T20:14:22.733Z,5.70
2019-06-27T20:16:51.343Z,6.33
2019-06-27T20:19:19.989Z,5.87
2019-06-27T20:21:48.694Z,4.37
2019-06-27T20:24:17.273Z,5.47
2019-06-27T20:26:46.310Z,7.80
2019-06-27T20:29:14.995Z,7.80
2019-06-27T20:31:43.780Z,4.83
2019-06-27T20:34:12.350Z,8.07
2019-06-27T20:36:40.934Z,4.70
2019-06-27T20:39:09.939Z,4.63
2019-06-27T20:41:38.550Z,4.50
2019-06-27T20:44:07.151Z,4.43
2019-06-27T20:46:35.764Z,7.77
2019-06-27T20:49:04.554Z,8.40
2019-06-27T20:51:33.161Z,4.80
2019-06-27T20:54:01.800Z,6.57
2019-06-27T20:56:30.595Z,4.27
2019-06-27T20:58:59.421Z,5.10
2019-06-27T21:01:31.536Z,6.77
2019-06-27T21:03:58.853Z,4.73
2019-06-27T21:06:27.588Z,4.77
2019-06-27T21:08:56.510Z,5.90
2019-06-27T21:11:25.105Z,6.87
2019-06-27T21:13:53.738Z,5.53
2019-06-27T21:16:22.443Z,5.20
2019-06-27T21:18:52.722Z,5.37
2019-06-27T21:21:21.415Z,4.50
2019-06-27T21:23:50.026Z,5.50
2019-06-27T21:26:18.674Z,5.13
2019-06-27T21:28:47.684Z,3.97
2019-06-27T21:31:16.452Z,5.33
2019-06-27T21:33:45.125Z,7.13
2019-06-27T21:36:13.729Z,7.23
2019-06-27T21:38:42.377Z,5.43
2019-06-27T21:41:11.029Z,6.63
2019-06-27T21:43:40.012Z,4.53
2019-06-27T21:46:08.764Z,6.33
2019-06-27T21:48:37.411Z,6.50
2019-06-27T21:51:06.087Z,4.70
2019-06-27T21:53:34.697Z,6.87
2019-06-27T21:56:03.351Z,4.50
2019-06-27T21:58:32.331Z,6.27
2019-06-27T22:01:01.429Z,6.83
2019-06-27T22:03:30.030Z,6.33
2019-06-27T22:05:59.110Z,6.70
2019-06-27T22:08:27.718Z,4.50
2019-06-27T22:10:56.364Z,6.43
2019-06-27T22:13:25.085Z,6.03
2019-06-27T22:15:53.730Z,5.10
2019-06-27T22:18:22.497Z,5.23
2019-06-27T22:20:51.167Z,9.50
2019-06-27T22:23:20.029Z,5.37
2019-06-27T22:25:48.695Z,5.80
2019-06-27T22:28:17.293Z,3.73
2019-06-27T22:30:46.064Z,4.70
2019-06-27T22:33:14.645Z,4.93
2019-06-27T22:35:43.287Z,5.50
2019-06-27T22:38:30.201Z,4.43
2019-06-27T22:41:17.103Z,7.33
2019-06-27T22:44:03.645Z,6.17
2019-06-27T22:46:50.126Z,4.43
2019-06-27T22:49:18.757Z,12.03
2019-06-27T22:52:04.374Z,6.73
2019-06-27T22:54:52.764Z,5.20
2019-06-27T22:57:21.681Z,6.07
2019-06-27T22:59:50.343Z,5.07
2019-06-27T23:02:18.919Z,6.43
2019-06-27T23:04:47.891Z,9.93
2019-06-27T23:07:16.468Z,5.67
2019-06-27T23:09:56.451Z,5.50
2019-06-27T23:12:15.365Z,6.00
2019-06-27T23:14:43.965Z,7.10
2019-06-27T23:17:12.747Z,5.97
2019-06-27T23:19:41.749Z,7.00
2019-06-27T23:22:10.445Z,4.97
2019-06-27T23:24:39.117Z,5.50
2019-06-27T23:27:07.689Z,5.77
2019-06-27T23:29:36.350Z,6.50
2019-06-27T23:32:05.492Z,5.87
2019-06-27T23:34:34.088Z,6.30
2019-06-27T23:37:02.976Z,5.50
2019-06-27T23:39:31.629Z,7.93
2019-06-27T23:42:00.257Z,5.20
2019-06-27T23:44:28.930Z,5.67
2019-06-27T23:46:57.595Z,5.60
2019-06-27T23:49:26.191Z,6.07
2019-06-27T23:51:54.806Z,3.17
2019-06-27T23:54:23.722Z,8.57
2019-06-27T23:56:52.353Z,4.30
2019-06-27T23:59:20.979Z,6.93
